Scout — SCOUT — position and weather

sailwx.info

Track history (hours):
 
Tides and Currents Weather Stations Pressure Air Temp Water Temp Dewpoint Dewpoint Depression Visibility Wind Speed Wind Dir Waves Ship Positions

Scout

Last reported at 2017-Sep-15 22:30 UTC. Time now 2017-Sep-19 16:52 UTC.
Position N 32°45' W 117°30'.

Length 13 m.

Type: Pleasure craft. MMSI: 316017359.

Date/timePositionNaut miles runAvg speedWind from/ knotsBaromVisibWave heightAir tempDewpointWater temp
2017-Sep-15 22:30N 32°45' W 117°30'714.3
2017-Sep-15 22:01N 32°40' W 117°24'2 4.2
2017-Sep-15 21:31N 32°42' W 117°25'2 4.5
2017-Sep-15 21:01N 32°40' W 117°23'6 6.2
2017-Sep-15 20:00N 32°42' W 117°31'2 4.6
2017-Sep-15 19:30N 32°44' W 117°29'510.1
2017-Sep-15 19:00N 32°41' W 117°24'3 5.6
2017-Sep-15 18:31N 32°42' W 117°27'7 3.4
2017-Sep-15 16:31N 32°49' W 117°29'1325.3
2017-Sep-15 16:00N 32°41' W 117°17'3 0.2
2017-Sep-14 21:39N 32°42' W 117°14'1 9.2
2017-Sep-14 21:31N 32°41' W 117°14'816.7
2017-Sep-14 21:01N 32°42' W 117°24'5 2.0
2017-Sep-14 18:30N 32°46' W 117°27'2 2.3
2017-Sep-14 17:30N 32°47' W 117°30'14 9.2
2017-Sep-14 16:00N 32°39' W 117°16'4 3.5
2017-Sep-14 15:00N 32°42' W 117°14'10 0.6
2017-Sep-13 22:31N 32°46' W 117°26'3 5.5
2017-Sep-13 22:00N 32°44' W 117°28'3 5.4
2017-Sep-13 21:31N 32°41' W 117°30'1 0.7
2017-Sep-13 20:31N 32°42' W 117°30'7 3.7
2017-Sep-13 18:31N 32°49' W 117°30'15 0.8
2017-Sep-12 23:50N 32°42' W 117°14'1310.0
2017-Sep-12 22:30N 32°41' W 117°30'2 4.2
2017-Sep-12 22:01N 32°43' W 117°30'2 4.2
2017-Sep-12 21:30N 32°45' W 117°29'5 9.2
2017-Sep-12 21:00N 32°40' W 117°30'510.6
2017-Sep-12 20:31N 32°45' W 117°29'4 2.6
2017-Sep-12 19:01N 32°49' W 117°30'4 8.1
2017-Sep-12 18:31N 32°45' W 117°29'3 5.3
2017-Sep-12 18:01N 32°48' W 117°28'1122.3
2017-Sep-12 17:31N 32°41' W 117°18'510.7
2017-Sep-12 17:00N 32°41' W 117°11'3 3.0
2017-Sep-12 16:01N 32°42' W 117°14'0 0.0
2017-Sep-12 15:30N 32°42' W 117°14'0 0.0
2017-Sep-12 01:19N 32°42' W 117°14'0 0.0
2017-Sep-11 23:31N 32°42' W 117°14'0 0.0
2017-Sep-09 22:49N 32°42' W 117°14'0 0.0
2017-Sep-09 22:30N 32°42' W 117°14'0 0.0
2017-Sep-09 22:00N 32°42' W 117°14'0 0.0
2017-Sep-09 21:30N 32°42' W 117°14'0 0.0
2017-Sep-09 21:00N 32°42' W 117°14'0 0.0
2017-Sep-09 20:30N 32°42' W 117°14'0 0.0
2017-Sep-09 19:30N 32°42' W 117°14'0 0.0
2017-Sep-09 19:00N 32°42' W 117°14'0 0.0
2017-Sep-07 23:30N 32°42' W 117°14'0 0.0
2017-Sep-07 22:30N 32°42' W 117°14'  
Track history (hours):
 
Tides and Currents Weather Stations Pressure Air Temp Water Temp Dewpoint Dewpoint Depression Visibility Wind Speed Wind Dir Waves Ship Positions

Scout

Last reported at 2017-Sep-15 22:30 UTC. Time now 2017-Sep-19 16:52 UTC.
Position N 32°45' W 117°30'.

Length 13 m.

Type: Pleasure craft. MMSI: 316017359.

Date/timePositionNaut miles runAvg speedWind from/ knotsBaromVisibWave heightAir tempDewpointWater temp
2017-Sep-15 22:30N 32°45' W 117°30'714.3
2017-Sep-15 22:01N 32°40' W 117°24'2 4.2
2017-Sep-15 21:31N 32°42' W 117°25'2 4.5
2017-Sep-15 21:01N 32°40' W 117°23'6 6.2
2017-Sep-15 20:00N 32°42' W 117°31'2 4.6
2017-Sep-15 19:30N 32°44' W 117°29'510.1
2017-Sep-15 19:00N 32°41' W 117°24'3 5.6
2017-Sep-15 18:31N 32°42' W 117°27'7 3.4
2017-Sep-15 16:31N 32°49' W 117°29'1325.3
2017-Sep-15 16:00N 32°41' W 117°17'3 0.2
2017-Sep-14 21:39N 32°42' W 117°14'1 9.2
2017-Sep-14 21:31N 32°41' W 117°14'816.7
2017-Sep-14 21:01N 32°42' W 117°24'5 2.0
2017-Sep-14 18:30N 32°46' W 117°27'2 2.3
2017-Sep-14 17:30N 32°47' W 117°30'14 9.2
2017-Sep-14 16:00N 32°39' W 117°16'4 3.5
2017-Sep-14 15:00N 32°42' W 117°14'10 0.6
2017-Sep-13 22:31N 32°46' W 117°26'3 5.5
2017-Sep-13 22:00N 32°44' W 117°28'3 5.4
2017-Sep-13 21:31N 32°41' W 117°30'1 0.7
2017-Sep-13 20:31N 32°42' W 117°30'7 3.7
2017-Sep-13 18:31N 32°49' W 117°30'15 0.8
2017-Sep-12 23:50N 32°42' W 117°14'1310.0
2017-Sep-12 22:30N 32°41' W 117°30'2 4.2
2017-Sep-12 22:01N 32°43' W 117°30'2 4.2
2017-Sep-12 21:30N 32°45' W 117°29'5 9.2
2017-Sep-12 21:00N 32°40' W 117°30'510.6
2017-Sep-12 20:31N 32°45' W 117°29'4 2.6
2017-Sep-12 19:01N 32°49' W 117°30'4 8.1
2017-Sep-12 18:31N 32°45' W 117°29'3 5.3
2017-Sep-12 18:01N 32°48' W 117°28'1122.3
2017-Sep-12 17:31N 32°41' W 117°18'510.7
2017-Sep-12 17:00N 32°41' W 117°11'3 3.0
2017-Sep-12 16:01N 32°42' W 117°14'0 0.0
2017-Sep-12 15:30N 32°42' W 117°14'0 0.0
2017-Sep-12 01:19N 32°42' W 117°14'0 0.0
2017-Sep-11 23:31N 32°42' W 117°14'0 0.0
2017-Sep-09 22:49N 32°42' W 117°14'0 0.0
2017-Sep-09 22:30N 32°42' W 117°14'0 0.0
2017-Sep-09 22:00N 32°42' W 117°14'0 0.0
2017-Sep-09 21:30N 32°42' W 117°14'0 0.0
2017-Sep-09 21:00N 32°42' W 117°14'0 0.0
2017-Sep-09 20:30N 32°42' W 117°14'0 0.0
2017-Sep-09 19:30N 32°42' W 117°14'0 0.0
2017-Sep-09 19:00N 32°42' W 117°14'0 0.0
2017-Sep-07 23:30N 32°42' W 117°14'0 0.0
2017-Sep-07 22:30N 32°42' W 117°14'  

Dump ship's entire track history